Resultados de THR THR WEEK / PROVA 11 - 22:30
KARTODROMO INTERNACIONAL GRANJA VIANA KGV RACE TRACKS - CIRCUITO 111
Resultados de THR - THR WEEK / PROVA 11 - 22:30


Pos No. Nome Classe Pontos Comentários Voltas Total Tempo Melhor Tempo na volta. Diff Espaço Melhor Veloc.
1 036 BRUNO MONTELES RENTAL 0 20 18:46.625 29.150 19 116,707
2 043 ANTHONY PEPERONE RENTAL 0 20 18:47.032 29.022 11 0.407 0.407 117,221
3 025 GUSTAVO MARQUES RENTAL 0 20 18:47.990 29.254 14 1.365 0.958 116,292
4 021 MARCOS ALEMÃO RENTAL 0 20 18:49.904 29.302 14 3.279 1.914 116,101
5 004 EDUARDO NEVES RENTAL 0 20 18:53.982 29.309 14 7.357 4.078 116,074
6 045 PAULO SANTANA RENTAL 0 20 18:54.112 29.276 9 7.487 0.130 116,204
7 044 THIAGO MORAES RENTAL 0 20 18:56.063 28.915 9 9.438 1.951 117,655
8 052 JOHNNY SILVA CONVIDADO 0 20 18:58.811 29.091 2 12.186 2.748 116,943
9 005 ZÉ PRIOSTE RENTAL 0 20 18:58.927 29.595 10 12.302 0.116 114,952
10 031 ROBERTO FRANCISCO CONVIDADO 0 20 19:01.358 29.065 2 14.733 2.431 117,048
11 020 KLEBER BARBAROTTI RENTAL 0 20 19:01.670 29.685 10 15.045 0.312 114,603
12 012 PABLO BAGNATI RENTAL 0 20 19:05.018 29.654 10 18.393 3.348 114,723
13 010 GALVANI VIEIRA CONVIDADO 0 20 19:06.908 30.065 9 20.283 1.890 113,155
14 015 GILNEI SOARES RENTAL 0 20 19:11.794 29.258 10 25.169 4.886 116,276
15 009 JOSÉ PATTARO RENTAL 0 20 19:13.035 29.627 9 26.410 1.241 114,828
16 002 LEO GIARDINI CONVIDADO 0 20 19:19.631 54.912 4 33.006 6.596 61,954
17 053 RAFAEL CROCE CONVIDADO 0 20 19:27.943 29.947 8 41.318 8.312 113,601
18 019 JUNINHO CONVIDADO 0 19 18:46.690 29.925 4 1 Volta 1 Volta 113,684
19 054 CARLOS CAMPUZANO CONVIDADO 0 19 18:47.288 29.962 15 1 Volta 0.598 113,544
20 049 VITOR PIÇARRA CONVIDADO 0 19 19:06.993 55.541 17 1 Volta 19.705 61,252
21 037 MARCELO ROCHA CONVIDADO 0 16 15:39.844 29.593 9 4 Voltas 3 Voltas 114,960
DQ 024 DIEGO SANTOS RENTAL 0 20 18:40.653 29.248 20 DQ 116,316
Gerada em 02/09/2021 23:10